Timeline UpdatesTrip UpdatesNews PostsPvt PostsTravel TipsAdmin PostsConv PostsFollowed PostsChat RequestsBlog PostsPNR Posts

Disclaimer
Search
 
 
Thu Jul 31, 2014 12:57:15 ISTHomeTrainsΣChainsAtlasPNRForumGalleryNewsFAQTripsMembersLoginFeedback
No Recent News for this Train
Other Trains in the News **new
Latest...
.
Sat Nov 30, 2013 (12:14PM)
⇐ Return Journey: Train# 13288

13287/South Bihar Express

Jul 01 2013 (4:22PM)
Change Departure Station:
Change Arrival Station:
Post a Train Travel TipPost a Train Travel Tip **new
Post a Comment/Question/Picture/VideoPost a Comment/Question/Picture/Video
Pantry/Catering
✕ NO Pantry Car
✓ Catering Avbl
local vendor sell items. Travelkhana.com supply food on order @...
Read more...
Rourkela/TATA
Loco/Rake Reversals
ASN/Asansol Junction (7); TATA/Tatanagar Junction (5);
RSA - Rake Sharing
Rake/Coach Composition
LOCO-SLR-GS-GS-H1-A2-A1-B3-B2-B1-S11-S10-S9-S8-S7-S6-S5-S4-S3-S2-S1-GS-GS-SLR
Loco
HWH/SRC WAP-4
News    PNR    Forum    Time-Table    Availability    Fare Chart    Map    Arr/Dep History    Trips    Gallery    ΣChains    X/O    Timeline    
Travel Time: 20h 40m    45 halts    Distance: 965 km    Avg Speed: 46 km/hr
Type: Mail/Express
Zone: ECR/East Central
Departs @ 10:30 (Avg 10m late)
Platform# 1
SMTWTFS
Bilaspur Junction/BSP 
Arrives @ 07:10 +1 night (Avg 1h 4m late)
Platform# 3
SMTWTFS
Patna Junction/PNBE 

45 halts. 165 intermediate Stations between Bilaspur Junction and Patna Junction

Show ALL intermediate Stations  Show Old Time-Table

#CodeStation NameX/OArrivesAvgDepartsAvgHaltPFDay#KmSpeedElevZoneAddress
1DURGDurg Junction (6)  -07:25+041-147.454299mSECRPh: 91-788-2322059, Chhattisgarh
2BPHBBhilai Power House (3)  07:35+207:36+21m--1-138.449312mSECRBhilai, Chhattisgarh
3RRaipur Junction (6)X  08:10+108:20+310m51-110.467297mSECRRaipur, Chhattisgarh
4TLDTilda (3)  08:54+1008:55+111m21-72.282291mSECRBanjari Rd, Chhattisgarh
5BYTBhatapara (4)X  09:14+1209:15+131m21-46.246270mSECRBanjari Road, Chhattisgarh
6BSP»Bilaspur Junction (8)»X  10:15+410:30+1015m110.061271mSECRBilaspur, Chhattisgarh
7AKTAkaltara (4)X  10:57+1110:58+121m--127.252284mSECRDist. Janjgir Champa, Chhattisgarh
8CPHChampa Junction (3)  11:28+811:30+92m2153.087264mSECRNational Highway 200 (07819-245767), Chhattisgarh
9SKTSakti (4)  11:51+1711:52+181m--183.471237mSECRJanjgir-Champa, Chhattisgarh
10KHSKharsia  12:05+2012:06+201m--198.864259mSECRNational Highway 200, Chhattisgarh
11RIGRaigarh (3)X  12:38+1712:43+175m11132.892220mSECRRaigarh, Chhattisgarh
12BRJNBrajrajnagar  13:22+2713:23+281m--1192.719212mSECRBrajrajnagar, Odisha
13JSGJharsuguda Junction (5)X  14:00+814:05+145m--1204.481236mSERJharsuguda, Odisha
14BMBBamra (3)X  14:32+1814:33+191m--1240.980259mSERBamra PH : 06642-229268, Odisha
15GPRaj Gangpur (3)  14:59+2015:00+211m--1275.551237mSERRaj Ganpur, Odisha
16ROURourkela Junction (5)  15:35+1815:50+1915m41305.439198mSERRourkela, Odisha
17BNDMBondamunda (2)  16:00+2316:01+221m21311.971213mSERRourkela, Odisha
18MOUManoharpur  16:29+2916:30+301m31345.157228mSERManoharpur, Jharkhand
19GOLGoilkera (2)  16:59+3217:00+331m11372.659333mSERGoilkera, Jharkhand
20SWRSonua  17:13+3117:14+321m11385.452287mSERSonua, Jharkhand
21CKPChakradharpur (3)  17:38+2617:40+272m21406.475235mSERChakradharpur (West Singhbhum), Jharkhand
22RKSNRajkharsawan Junction (3)X  17:56+3217:57+331m21426.551189mSERSaraikela Kharswan District, Jharkhand
23SINISini Junction (3)X  18:15+3118:16+321m11441.741182mSERNational Highway 33, Jharkhand
24TATATatanagar Junction (5)X18:55+2619:35+2140m21468.723164mSER91-657-2423026, Jharkhand
25ADTPAdityapur (3)  19:47+1519:48+171m11473.340152mSERJamshedpur, Jharkhand
26KNDKandra (4)X  20:12+1820:13+181m--1489.327176mSERJamshedpur, Jharkhand
27CNIChandil Junction (4)X  20:45+2420:47+252m21503.578178mSERChandil, Jharkhand
28BBMBarabhum  21:04+3121:05+321m--1525.764229mSERBalarampur, West Bengal
29PRRPurulia Junction (4)  21:35+2921:40+275m31557.557240mSERPurulia, West Bengal
30ANRAnara (2)  22:07+2922:08+301m--1583.328216mSERdist - Purulia, West Bengal
31JOCJoychandi Pahar (3)  22:37+2022:38+241m--1596.650176mSERDist - Purulia, West Bengal
32BURNBurnpur (3)  23:17+2523:18+291m--1628.86134mSERCHITRA CINEMA HALL MORE, West Bengal
33ASNAsansol Junction (7)XO00:05+900:30+1225m52633.763113mERDist - bardhaman, West Bengal
34CRJChittaranjan (3)X  00:54+2400:55+251m32658.872182mERMihijam, Jharkhand
35JMTJamtara (2)  01:07+2501:08+261m12673.162201mERJamtara, Jharkhand
36MDPMadhupur Junction (4)XO  01:49+2701:53+274m--2715.270254mER06432-224478, Jharkhand
37JSMEJasidih Junction (5)X  02:18+2802:23+285m--2744.354271mERJasidih, Jharkhand
38JAJJhajha (4)X  03:12+2403:17+275m--2788.478143mECRJhajha, Bihar
39JMUJamui (3)  03:37+3803:38+411m--2814.46881mECRState Highway 72, Bihar
40KIULKiul Junction (5)X  04:02+4404:07+455m--2841.71253mECRDist. Lakhisarai, Bihar
41LKRLuckeesarai Junction (2)  04:14+4704:15+481m--2843.06552mECRLakhisarai, Bihar
42BRYABarhiya (3)XO  04:29+5704:30+581m--2858.14747mECRBarahiya, Bihar
43HTZHathidah Junction (2)  04:42+5904:43+1:001m22867.55050mECRMusahari, Bihar
44MKAMokama Junction (3)  04:53+1:0504:55+1:062m12875.98248mECRPatna, Bihar
45BARHBarh (3)  05:14+1:1605:15+1:191m22901.86149mECRBarh, Bihar
46ATLAthmal Gola (2)X  05:24+1:1905:25+1:211m12911.04552mECRPatna, Bihar
47BKPBakhtiyarpur Junction (5)X  05:37+1:2005:39+1:222m22920.03851mECRPatna, Bihar
48KOOKhusropur (2)X  06:02+1:1706:03+1:201m--2934.65652mECRPatna, Bihar
49FUTFatwa (6)  06:12+1:2106:13+1:231m--2943.07353mECRPatna, Bihar
50PNCPatna Saheb (3)XO  06:23+1:2606:24+1:271m--2955.31559mECRPatna, Bihar
51RJPBRajendra Nagar Bihar (4)X  06:54+1:1106:56+1:112m32962.51155mECRPatna 800001, Bihar
52PNBE•Patna Junction (10)•X  07:10+1:0407:20+1:0510m32965.11657mECRPatna 800001, Bihar
53DNRDanapur (5)  07:55+1:06-52974.5-58mECRKhagaul, Bihar
Scroll to Top
Scroll to Bottom